Achilles, Virginia
Current Conditions -  °F | °C
As of 10:54 AM on Friday 24 Oct 2014 (Local Time) from KPHF Reporting Station
Clear Clear  
Wind Chill: 17°   Ceiling: Unl
Heat Index: 17°   Visibility: 10mi
Dew Point:   Wind: 14mph
Humidity: 52%   Direction: 330°NNW
Pressure: 29.99"   Gusts: 21mph
Location:  37.28°N, 76.44°W
Report Text: KPHF 241454Z 33012G18KT 10SM CLR 17/07 A2999 RMK AO2 SLP155 T01720072 50006
Loading
Personal Weather Stations






























Interactive Weather Map
Tropical Storm Tracking
New forecast layout! Learn more

10-Day Weather Forecast

Advertisements
Track Severe Weather on mobile